PWSweather.com
Personal Weather Stations
Station Observations
DELHOVEN
DormagenDE 41540

DormagenDE 41540

Lat: 51.083, Lon: 6.775

Elevation: 120

Station Type: WH1080

Latest ConditionsUpdated 12:54:18 PM GMT+01:01 Friday, Nov 21, 2014
Currently Today's Max Today's Min Today's Average
Temperature 51.1°F10.6°C 51.1°F10.6°C 32.5°F0.3°C 38.4°F3.6°C
Dew Point 40.1°F4.5°C 42.2°F5.7°C 28.8°F-1.8°C 34.6°F1.4°C
Winds 4.5 mph 7.2 kmh 7.6 mph ENE12.2 kmh ENE - 1.8 mph 2.9 kmh
Wind Gusts 8.3 mph13.4 kmh 11.4 mph18.3 kmh - -
Humidity 66% 92% 66% 86%
Pressure 30.20 in1022.7 mb 30.33 in1027.1 mb 30.20 in1022.7 mb -
Hour Temp Dew Point Humidity Winds Wind Gusts Pressure Precip Precip Rate Daily Precip Total
12:54 PM 51.1°F10.6°C 40.1°F4.5°C 66% 4.5 mph 7.2 kmh 8.3 mph13.4 kmh 30.20 in1022.7 mb 0.00 in0.0 mm 0.00 in/hr0.0 mm/hr 0.00 in0.0 mm
12:49 PM 50.9°F10.5°C 40.3°F4.6°C 67% 7.6 mph ENE12.2 kmh ENE 9.8 mph15.8 kmh 30.20 in1022.7 mb 0.00 in0.0 mm 0.00 in/hr0.0 mm/hr 0.00 in0.0 mm
12:44 PM 50.7°F10.4°C 40.2°F4.6°C 67% 4.5 mph SE7.2 kmh SE 6.0 mph9.7 kmh 30.20 in1022.7 mb 0.00 in0.0 mm 0.00 in/hr0.0 mm/hr 0.00 in0.0 mm
12:39 PM 50.4°F10.2°C 39.8°F4.3°C 67% 6.9 mph S11.1 kmh S 9.2 mph14.8 kmh 30.21 in1023.0 mb 0.00 in0.0 mm 0.00 in/hr0.0 mm/hr 0.00 in0.0 mm
12:34 PM 50.4°F10.2°C 40.2°F4.6°C 68% 6.9 mph E11.1 kmh E 11.4 mph18.3 kmh 30.21 in1023.0 mb 0.00 in0.0 mm 0.00 in/hr0.0 mm/hr 0.00 in0.0 mm
12:29 PM 50.2°F10.1°C 40.4°F4.7°C 69% 7.6 mph E12.2 kmh E 10.7 mph17.2 kmh 30.21 in1023.0 mb 0.00 in0.0 mm 0.00 in/hr0.0 mm/hr 0.00 in0.0 mm
12:24 PM 50.0°F10.0°C 40.2°F4.6°C 69% 4.5 mph SE7.2 kmh SE 9.2 mph14.8 kmh 30.21 in1023.0 mb 0.00 in0.0 mm 0.00 in/hr0.0 mm/hr 0.00 in0.0 mm
12:19 PM 49.8°F9.9°C 40.8°F4.9°C 71% 4.5 mph E7.2 kmh E 8.3 mph13.4 kmh 30.21 in1023.0 mb 0.00 in0.0 mm 0.00 in/hr0.0 mm/hr 0.00 in0.0 mm
12:14 PM 49.5°F9.7°C 40.5°F4.7°C 71% 5.4 mph SE8.7 kmh SE 7.6 mph12.2 kmh 30.21 in1023.0 mb 0.00 in0.0 mm 0.00 in/hr0.0 mm/hr 0.00 in0.0 mm
12:09 PM 49.3°F9.6°C 40.6°F4.8°C 72% 3.8 mph 6.1 kmh 7.6 mph12.2 kmh 30.21 in1023.0 mb 0.00 in0.0 mm 0.00 in/hr0.0 mm/hr 0.00 in0.0 mm
12:04 PM 48.7°F9.3°C 41.5°F5.3°C 76% 2.2 mph S3.5 kmh S 4.5 mph7.2 kmh 30.21 in1023.0 mb 0.00 in0.0 mm 0.00 in/hr0.0 mm/hr 0.00 in0.0 mm
11:59 AM 48.7°F9.3°C 41.5°F5.3°C 76% 2.2 mph 3.5 kmh 5.4 mph8.7 kmh 30.22 in1023.4 mb 0.00 in0.0 mm 0.00 in/hr0.0 mm/hr 0.00 in0.0 mm
11:54 AM 48.4°F9.1°C 41.8°F5.4°C 78% 4.5 mph SE7.2 kmh SE 6.9 mph11.1 kmh 30.22 in1023.4 mb 0.00 in0.0 mm 0.00 in/hr0.0 mm/hr 0.00 in0.0 mm
11:49 AM 48.0°F8.9°C 42.1°F5.6°C 80% 5.4 mph S8.7 kmh S 7.6 mph12.2 kmh 30.22 in1023.4 mb 0.00 in0.0 mm 0.00 in/hr0.0 mm/hr 0.00 in0.0 mm
11:44 AM 47.5°F8.6°C 41.6°F5.3°C 80% 3.8 mph SE6.1 kmh SE 5.4 mph8.7 kmh 30.22 in1023.4 mb 0.00 in0.0 mm 0.00 in/hr0.0 mm/hr 0.00 in0.0 mm
11:39 AM 47.1°F8.4°C 42.2°F5.7°C 83% 6.0 mph SE9.7 kmh SE 8.3 mph13.4 kmh 30.22 in1023.4 mb 0.00 in0.0 mm 0.00 in/hr0.0 mm/hr 0.00 in0.0 mm
11:34 AM 46.8°F8.2°C 42.2°F5.7°C 84% 4.5 mph E7.2 kmh E 6.0 mph9.7 kmh 30.22 in1023.4 mb 0.00 in0.0 mm 0.00 in/hr0.0 mm/hr 0.00 in0.0 mm
11:29 AM 46.4°F8.0°C 42.1°F5.6°C 85% 3.8 mph SE6.1 kmh SE 6.9 mph11.1 kmh 30.22 in1023.4 mb 0.00 in0.0 mm 0.00 in/hr0.0 mm/hr 0.00 in0.0 mm
11:24 AM 46.0°F7.8°C 41.8°F5.4°C 85% 3.8 mph E6.1 kmh E 6.0 mph9.7 kmh 30.23 in1023.7 mb 0.00 in0.0 mm 0.00 in/hr0.0 mm/hr 0.00 in0.0 mm
11:19 AM 45.5°F7.5°C 41.6°F5.3°C 86% 3.8 mph NE6.1 kmh NE 6.0 mph9.7 kmh 30.23 in1023.7 mb 0.00 in0.0 mm 0.00 in/hr0.0 mm/hr 0.00 in0.0 mm
11:14 AM 45.1°F7.3°C 41.5°F5.3°C 87% 3.8 mph S6.1 kmh S 6.9 mph11.1 kmh 30.23 in1023.7 mb 0.00 in0.0 mm 0.00 in/hr0.0 mm/hr 0.00 in0.0 mm
11:09 AM 44.8°F7.1°C 41.2°F5.1°C 87% 4.5 mph SE7.2 kmh SE 6.9 mph11.1 kmh 30.23 in1023.7 mb 0.00 in0.0 mm 0.00 in/hr0.0 mm/hr 0.00 in0.0 mm
11:04 AM 44.4°F6.9°C 41.4°F5.2°C 89% 3.8 mph SE6.1 kmh SE 6.9 mph11.1 kmh 30.23 in1023.7 mb 0.00 in0.0 mm 0.00 in/hr0.0 mm/hr 0.00 in0.0 mm
10:59 AM 44.1°F6.7°C 41.0°F5.0°C 89% 3.1 mph S5.0 kmh S 5.4 mph8.7 kmh 30.23 in1023.7 mb 0.00 in0.0 mm 0.00 in/hr0.0 mm/hr 0.00 in0.0 mm
10:54 AM 43.7°F6.5°C 41.0°F5.0°C 90% 6.0 mph E9.7 kmh E 8.3 mph13.4 kmh 30.23 in1023.7 mb 0.00 in0.0 mm 0.00 in/hr0.0 mm/hr 0.00 in0.0 mm
10:49 AM 43.2°F6.2°C 40.4°F4.7°C 90% 3.8 mph E6.1 kmh E 6.9 mph11.1 kmh 30.24 in1024.0 mb 0.00 in0.0 mm 0.00 in/hr0.0 mm/hr 0.00 in0.0 mm
10:44 AM 43.0°F6.1°C 40.3°F4.6°C 90% 6.9 mph SE11.1 kmh SE 7.6 mph12.2 kmh 30.24 in1024.0 mb 0.00 in0.0 mm 0.00 in/hr0.0 mm/hr 0.00 in0.0 mm
10:39 AM 42.4°F5.8°C 40.0°F4.4°C 91% 2.2 mph ESE3.5 kmh ESE 3.8 mph6.1 kmh 30.24 in1024.0 mb 0.00 in0.0 mm 0.00 in/hr0.0 mm/hr 0.00 in0.0 mm
10:34 AM 42.1°F5.6°C 39.9°F4.4°C 92% 2.2 mph E3.5 kmh E 4.5 mph7.2 kmh 30.24 in1024.0 mb 0.00 in0.0 mm 0.00 in/hr0.0 mm/hr 0.00 in0.0 mm
10:29 AM 41.7°F5.4°C 39.3°F4.1°C 91% 3.1 mph S5.0 kmh S 4.5 mph7.2 kmh 30.24 in1024.0 mb 0.00 in0.0 mm 0.00 in/hr0.0 mm/hr 0.00 in0.0 mm
10:24 AM 41.5°F5.3°C 39.1°F3.9°C 91% 2.2 mph E3.5 kmh E 6.0 mph9.7 kmh 30.24 in1024.0 mb 0.00 in0.0 mm 0.00 in/hr0.0 mm/hr 0.00 in0.0 mm
10:19 AM 41.0°F5.0°C 38.6°F3.7°C 91% 3.8 mph SE6.1 kmh SE 6.0 mph9.7 kmh 30.24 in1024.0 mb 0.00 in0.0 mm 0.00 in/hr0.0 mm/hr 0.00 in0.0 mm
10:14 AM 40.6°F4.8°C 38.5°F3.6°C 92% 2.2 mph E3.5 kmh E 3.8 mph6.1 kmh 30.24 in1024.0 mb 0.00 in0.0 mm 0.00 in/hr0.0 mm/hr 0.00 in0.0 mm
10:09 AM 40.3°F4.6°C 38.1°F3.4°C 92% 1.6 mph ESE2.6 kmh ESE 4.5 mph7.2 kmh 30.24 in1024.0 mb 0.00 in0.0 mm 0.00 in/hr0.0 mm/hr 0.00 in0.0 mm
10:04 AM 39.6°F4.2°C 37.2°F2.9°C 91% 1.6 mph E2.6 kmh E 3.8 mph6.1 kmh 30.24 in1024.0 mb 0.00 in0.0 mm 0.00 in/hr0.0 mm/hr 0.00 in0.0 mm
09:59 AM 39.4°F4.1°C 37.0°F2.8°C 91% 0.7 mph SE1.1 kmh SE 1.6 mph2.6 kmh 30.24 in1024.0 mb 0.00 in0.0 mm 0.00 in/hr0.0 mm/hr 0.00 in0.0 mm
09:54 AM 39.0°F3.9°C 36.9°F2.7°C 92% 1.6 mph NE2.6 kmh NE 2.2 mph3.5 kmh 30.24 in1024.0 mb 0.00 in0.0 mm 0.00 in/hr0.0 mm/hr 0.00 in0.0 mm
09:49 AM 38.3°F3.5°C 36.2°F2.3°C 92% 2.2 mph NE3.5 kmh NE 3.1 mph5.0 kmh 30.24 in1024.0 mb 0.00 in0.0 mm 0.00 in/hr0.0 mm/hr 0.00 in0.0 mm
09:44 AM 37.9°F3.3°C 35.6°F2.0°C 91% 2.2 mph E3.5 kmh E 3.8 mph6.1 kmh 30.24 in1024.0 mb 0.00 in0.0 mm 0.00 in/hr0.0 mm/hr 0.00 in0.0 mm
09:39 AM 37.4°F3.0°C 35.0°F1.7°C 91% 1.6 mph SE2.6 kmh SE 3.1 mph5.0 kmh 30.24 in1024.0 mb 0.00 in0.0 mm 0.00 in/hr0.0 mm/hr 0.00 in0.0 mm
09:34 AM 36.9°F2.7°C 33.4°F0.8°C 87% 2.2 mph NE3.5 kmh NE 3.8 mph6.1 kmh 30.25 in1024.4 mb 0.00 in0.0 mm 0.00 in/hr0.0 mm/hr 0.00 in0.0 mm
09:29 AM 36.1°F2.3°C 32.4°F0.2°C 86% 0.7 mph E1.1 kmh E 2.2 mph3.5 kmh 30.24 in1024.0 mb 0.00 in0.0 mm 0.00 in/hr0.0 mm/hr 0.00 in0.0 mm
09:24 AM 35.6°F2.0°C 31.8°F-0.1°C 86% 0.7 mph SE1.1 kmh SE 2.2 mph3.5 kmh 30.24 in1024.0 mb 0.00 in0.0 mm 0.00 in/hr0.0 mm/hr 0.00 in0.0 mm
09:19 AM 35.1°F1.7°C 31.6°F-0.2°C 87% 0.7 mph E1.1 kmh E 2.2 mph3.5 kmh 30.25 in1024.4 mb 0.00 in0.0 mm 0.00 in/hr0.0 mm/hr 0.00 in0.0 mm
09:14 AM 34.5°F1.4°C 31.1°F-0.5°C 87% Calm Calm 1.6 mph2.6 kmh 30.25 in1024.4 mb 0.00 in0.0 mm 0.00 in/hr0.0 mm/hr 0.00 in0.0 mm
09:09 AM 34.0°F1.1°C 30.2°F-1.0°C 86% 0.7 mph ENE1.1 kmh ENE 2.2 mph3.5 kmh 30.25 in1024.4 mb 0.00 in0.0 mm 0.00 in/hr0.0 mm/hr 0.00 in0.0 mm
09:04 AM 33.8°F1.0°C 30.1°F-1.1°C 86% 0.7 mph E1.1 kmh E 2.2 mph3.5 kmh 30.25 in1024.4 mb 0.00 in0.0 mm 0.00 in/hr0.0 mm/hr 0.00 in0.0 mm
08:59 AM 33.6°F0.9°C 30.2°F-1.0°C 87% Calm Calm 0.7 mph1.1 kmh 30.25 in1024.4 mb 0.00 in0.0 mm 0.00 in/hr0.0 mm/hr 0.00 in0.0 mm
08:54 AM 33.3°F0.7°C 29.8°F-1.2°C 87% Calm Calm -- 30.25 in1024.4 mb 0.00 in0.0 mm 0.00 in/hr0.0 mm/hr 0.00 in0.0 mm
08:49 AM 33.1°F0.6°C 29.6°F-1.3°C 87% Calm Calm 0.7 mph1.1 kmh 30.26 in1024.7 mb 0.00 in0.0 mm 0.00 in/hr0.0 mm/hr 0.00 in0.0 mm
08:44 AM 32.9°F0.5°C 29.5°F-1.4°C 87% Calm Calm 0.7 mph1.1 kmh 30.25 in1024.4 mb 0.00 in0.0 mm 0.00 in/hr0.0 mm/hr 0.00 in0.0 mm
08:39 AM 32.7°F0.4°C 29.0°F-1.7°C 86% Calm Calm 0.7 mph1.1 kmh 30.25 in1024.4 mb 0.00 in0.0 mm 0.00 in/hr0.0 mm/hr 0.00 in0.0 mm
08:34 AM 32.5°F0.3°C 28.8°F-1.8°C 86% 0.7 mph SE1.1 kmh SE 1.6 mph2.6 kmh 30.25 in1024.4 mb 0.00 in0.0 mm 0.00 in/hr0.0 mm/hr 0.00 in0.0 mm
08:29 AM 32.7°F0.4°C 29.0°F-1.7°C 86% Calm Calm -- 30.25 in1024.4 mb 0.00 in0.0 mm 0.00 in/hr0.0 mm/hr 0.00 in0.0 mm
08:24 AM 32.9°F0.5°C 29.2°F-1.6°C 86% Calm Calm -- 30.25 in1024.4 mb 0.00 in0.0 mm 0.00 in/hr0.0 mm/hr 0.00 in0.0 mm
08:19 AM 32.9°F0.5°C 29.2°F-1.6°C 86% Calm Calm -- 30.25 in1024.4 mb 0.00 in0.0 mm 0.00 in/hr0.0 mm/hr 0.00 in0.0 mm
08:14 AM 32.9°F0.5°C 29.2°F-1.6°C 86% Calm Calm -- 30.25 in1024.4 mb 0.00 in0.0 mm 0.00 in/hr0.0 mm/hr 0.00 in0.0 mm
08:09 AM 32.9°F0.5°C 29.2°F-1.6°C 86% Calm Calm -- 30.25 in1024.4 mb 0.00 in0.0 mm 0.00 in/hr0.0 mm/hr 0.00 in0.0 mm
08:04 AM 32.7°F0.4°C 29.0°F-1.7°C 86% Calm Calm -- 30.25 in1024.4 mb 0.00 in0.0 mm 0.00 in/hr0.0 mm/hr 0.00 in0.0 mm
07:59 AM 32.7°F0.4°C 29.0°F-1.7°C 86% Calm Calm -- 30.25 in1024.4 mb 0.00 in0.0 mm 0.00 in/hr0.0 mm/hr 0.00 in0.0 mm
07:54 AM 32.7°F0.4°C 29.0°F-1.7°C 86% Calm Calm -- 30.25 in1024.4 mb 0.00 in0.0 mm 0.00 in/hr0.0 mm/hr 0.00 in0.0 mm
07:49 AM 32.7°F0.4°C 29.0°F-1.7°C 86% Calm Calm -- 30.25 in1024.4 mb 0.00 in0.0 mm 0.00 in/hr0.0 mm/hr 0.00 in0.0 mm
07:44 AM 32.7°F0.4°C 29.0°F-1.7°C 86% Calm Calm -- 30.25 in1024.4 mb 0.00 in0.0 mm 0.00 in/hr0.0 mm/hr 0.00 in0.0 mm
07:39 AM 32.7°F0.4°C 29.0°F-1.7°C 86% Calm Calm -- 30.25 in1024.4 mb 0.00 in0.0 mm 0.00 in/hr0.0 mm/hr 0.00 in0.0 mm
07:34 AM 32.9°F0.5°C 29.2°F-1.6°C 86% Calm Calm -- 30.25 in1024.4 mb 0.00 in0.0 mm 0.00 in/hr0.0 mm/hr 0.00 in0.0 mm
07:29 AM 33.1°F0.6°C 29.4°F-1.4°C 86% Calm Calm -- 30.25 in1024.4 mb 0.00 in0.0 mm 0.00 in/hr0.0 mm/hr 0.00 in0.0 mm
07:24 AM 33.1°F0.6°C 29.4°F-1.4°C 86% Calm Calm 0.7 mph1.1 kmh 30.24 in1024.0 mb 0.00 in0.0 mm 0.00 in/hr0.0 mm/hr 0.00 in0.0 mm
07:19 AM 33.4°F0.8°C 29.7°F-1.3°C 86% Calm Calm -- 30.24 in1024.0 mb 0.00 in0.0 mm 0.00 in/hr0.0 mm/hr 0.00 in0.0 mm
07:14 AM 33.4°F0.8°C 30.0°F-1.1°C 87% Calm Calm -- 30.24 in1024.0 mb 0.00 in0.0 mm 0.00 in/hr0.0 mm/hr 0.00 in0.0 mm
07:09 AM 33.6°F0.9°C 30.2°F-1.0°C 87% Calm Calm -- 30.24 in1024.0 mb 0.00 in0.0 mm 0.00 in/hr0.0 mm/hr 0.00 in0.0 mm
07:04 AM 33.6°F0.9°C 30.2°F-1.0°C 87% Calm Calm -- 30.24 in1024.0 mb 0.00 in0.0 mm 0.00 in/hr0.0 mm/hr 0.00 in0.0 mm
06:59 AM 33.8°F1.0°C 30.1°F-1.1°C 86% Calm Calm -- 30.25 in1024.4 mb 0.00 in0.0 mm 0.00 in/hr0.0 mm/hr 0.00 in0.0 mm
06:54 AM 34.0°F1.1°C 30.2°F-1.0°C 86% Calm Calm -- 30.25 in1024.4 mb 0.00 in0.0 mm 0.00 in/hr0.0 mm/hr 0.00 in0.0 mm
06:49 AM 34.2°F1.2°C 30.4°F-0.9°C 86% Calm Calm -- 30.24 in1024.0 mb 0.00 in0.0 mm 0.00 in/hr0.0 mm/hr 0.00 in0.0 mm
06:44 AM 34.3°F1.3°C 30.6°F-0.8°C 86% Calm Calm -- 30.25 in1024.4 mb 0.00 in0.0 mm 0.00 in/hr0.0 mm/hr 0.00 in0.0 mm
06:39 AM 34.7°F1.5°C 30.9°F-0.6°C 86% Calm Calm -- 30.25 in1024.4 mb 0.00 in0.0 mm 0.00 in/hr0.0 mm/hr 0.00 in0.0 mm
06:34 AM 35.1°F1.7°C 31.3°F-0.4°C 86% Calm Calm -- 30.25 in1024.4 mb 0.00 in0.0 mm 0.00 in/hr0.0 mm/hr 0.00 in0.0 mm
06:29 AM 35.4°F1.9°C 31.7°F-0.2°C 86% Calm Calm -- 30.25 in1024.4 mb 0.00 in0.0 mm 0.00 in/hr0.0 mm/hr 0.00 in0.0 mm
06:24 AM 35.8°F2.1°C 32.0°F0.0°C 86% Calm Calm -- 30.25 in1024.4 mb 0.00 in0.0 mm 0.00 in/hr0.0 mm/hr 0.00 in0.0 mm
06:19 AM 36.1°F2.3°C 32.4°F0.2°C 86% Calm Calm -- 30.25 in1024.4 mb 0.00 in0.0 mm 0.00 in/hr0.0 mm/hr 0.00 in0.0 mm
06:14 AM 36.3°F2.4°C 32.5°F0.3°C 86% 0.7 mph NE1.1 kmh NE 1.6 mph2.6 kmh 30.25 in1024.4 mb 0.00 in0.0 mm 0.00 in/hr0.0 mm/hr 0.00 in0.0 mm
06:09 AM 36.3°F2.4°C 32.5°F0.3°C 86% 0.7 mph ENE1.1 kmh ENE 2.2 mph3.5 kmh 30.25 in1024.4 mb 0.00 in0.0 mm 0.00 in/hr0.0 mm/hr 0.00 in0.0 mm
06:04 AM 36.3°F2.4°C 32.5°F0.3°C 86% 0.7 mph NE1.1 kmh NE 1.6 mph2.6 kmh 30.25 in1024.4 mb 0.00 in0.0 mm 0.00 in/hr0.0 mm/hr 0.00 in0.0 mm
05:59 AM 36.3°F2.4°C 32.5°F0.3°C 86% 1.6 mph NE2.6 kmh NE 2.2 mph3.5 kmh 30.26 in1024.7 mb 0.00 in0.0 mm 0.00 in/hr0.0 mm/hr 0.00 in0.0 mm
05:54 AM 36.3°F2.4°C 32.5°F0.3°C 86% 1.6 mph NE2.6 kmh NE 2.2 mph3.5 kmh 30.26 in1024.7 mb 0.00 in0.0 mm 0.00 in/hr0.0 mm/hr 0.00 in0.0 mm
05:49 AM 36.3°F2.4°C 32.5°F0.3°C 86% 1.6 mph NE2.6 kmh NE 3.1 mph5.0 kmh 30.26 in1024.7 mb 0.00 in0.0 mm 0.00 in/hr0.0 mm/hr 0.00 in0.0 mm
05:44 AM 36.3°F2.4°C 32.5°F0.3°C 86% 0.7 mph NE1.1 kmh NE 2.2 mph3.5 kmh 30.26 in1024.7 mb 0.00 in0.0 mm 0.00 in/hr0.0 mm/hr 0.00 in0.0 mm
05:39 AM 36.5°F2.5°C 32.7°F0.4°C 86% 1.6 mph ENE2.6 kmh ENE 3.8 mph6.1 kmh 30.26 in1024.7 mb 0.00 in0.0 mm 0.00 in/hr0.0 mm/hr 0.00 in0.0 mm
05:34 AM 36.5°F2.5°C 32.7°F0.4°C 86% Calm Calm 0.7 mph1.1 kmh 30.26 in1024.7 mb 0.00 in0.0 mm 0.00 in/hr0.0 mm/hr 0.00 in0.0 mm
05:29 AM 36.7°F2.6°C 32.9°F0.5°C 86% Calm Calm -- 30.27 in1025.1 mb 0.00 in0.0 mm 0.00 in/hr0.0 mm/hr 0.00 in0.0 mm
05:24 AM 36.7°F2.6°C 32.9°F0.5°C 86% 0.7 mph SE1.1 kmh SE 1.6 mph2.6 kmh 30.26 in1024.7 mb 0.00 in0.0 mm 0.00 in/hr0.0 mm/hr 0.00 in0.0 mm
05:19 AM 36.9°F2.7°C 33.1°F0.6°C 86% 1.6 mph E2.6 kmh E 2.2 mph3.5 kmh 30.27 in1025.1 mb 0.00 in0.0 mm 0.00 in/hr0.0 mm/hr 0.00 in0.0 mm
05:14 AM 36.9°F2.7°C 33.1°F0.6°C 86% 0.7 mph E1.1 kmh E 2.2 mph3.5 kmh 30.27 in1025.1 mb 0.00 in0.0 mm 0.00 in/hr0.0 mm/hr 0.00 in0.0 mm
05:09 AM 37.0°F2.8°C 33.2°F0.7°C 86% 2.2 mph E3.5 kmh E 3.1 mph5.0 kmh 30.27 in1025.1 mb 0.00 in0.0 mm 0.00 in/hr0.0 mm/hr 0.00 in0.0 mm
05:04 AM 37.0°F2.8°C 33.2°F0.7°C 86% 1.6 mph E2.6 kmh E 3.1 mph5.0 kmh 30.27 in1025.1 mb 0.00 in0.0 mm 0.00 in/hr0.0 mm/hr 0.00 in0.0 mm
04:59 AM 37.0°F2.8°C 33.2°F0.7°C 86% 3.1 mph ENE5.0 kmh ENE 3.8 mph6.1 kmh 30.27 in1025.1 mb 0.00 in0.0 mm 0.00 in/hr0.0 mm/hr 0.00 in0.0 mm
04:54 AM 37.2°F2.9°C 33.4°F0.8°C 86% 1.6 mph NE2.6 kmh NE 3.1 mph5.0 kmh 30.27 in1025.1 mb 0.00 in0.0 mm 0.00 in/hr0.0 mm/hr 0.00 in0.0 mm
04:49 AM 37.2°F2.9°C 33.4°F0.8°C 86% 2.2 mph NE3.5 kmh NE 3.1 mph5.0 kmh 30.27 in1025.1 mb 0.00 in0.0 mm 0.00 in/hr0.0 mm/hr 0.00 in0.0 mm
04:44 AM 37.2°F2.9°C 33.4°F0.8°C 86% 3.1 mph 5.0 kmh 3.8 mph6.1 kmh 30.27 in1025.1 mb 0.00 in0.0 mm 0.00 in/hr0.0 mm/hr 0.00 in0.0 mm
04:39 AM 37.2°F2.9°C 33.7°F0.9°C 87% 2.2 mph NE3.5 kmh NE 3.1 mph5.0 kmh 30.27 in1025.1 mb 0.00 in0.0 mm 0.00 in/hr0.0 mm/hr 0.00 in0.0 mm
04:34 AM 37.4°F3.0°C 35.0°F1.7°C 91% 1.6 mph NE2.6 kmh NE 3.1 mph5.0 kmh 30.27 in1025.1 mb 0.00 in0.0 mm 0.00 in/hr0.0 mm/hr 0.00 in0.0 mm
04:29 AM 37.4°F3.0°C 35.0°F1.7°C 91% 2.2 mph E3.5 kmh E 3.8 mph6.1 kmh 30.28 in1025.4 mb 0.00 in0.0 mm 0.00 in/hr0.0 mm/hr 0.00 in0.0 mm
04:24 AM 37.4°F3.0°C 35.0°F1.7°C 91% 2.2 mph ENE3.5 kmh ENE 3.8 mph6.1 kmh 30.28 in1025.4 mb 0.00 in0.0 mm 0.00 in/hr0.0 mm/hr 0.00 in0.0 mm
04:19 AM 37.4°F3.0°C 35.0°F1.7°C 91% 2.2 mph 3.5 kmh 4.5 mph7.2 kmh 30.28 in1025.4 mb 0.00 in0.0 mm 0.00 in/hr0.0 mm/hr 0.00 in0.0 mm
04:14 AM 37.4°F3.0°C 35.0°F1.7°C 91% 2.2 mph E3.5 kmh E 3.1 mph5.0 kmh 30.28 in1025.4 mb 0.00 in0.0 mm 0.00 in/hr0.0 mm/hr 0.00 in0.0 mm
04:09 AM 37.2°F2.9°C 33.7°F0.9°C 87% 2.2 mph NE3.5 kmh NE 3.8 mph6.1 kmh 30.28 in1025.4 mb 0.00 in0.0 mm 0.00 in/hr0.0 mm/hr 0.00 in0.0 mm
04:04 AM 37.0°F2.8°C 33.5°F0.8°C 87% 3.1 mph E5.0 kmh E 6.0 mph9.7 kmh 30.28 in1025.4 mb 0.00 in0.0 mm 0.00 in/hr0.0 mm/hr 0.00 in0.0 mm
03:59 AM 37.0°F2.8°C 33.5°F0.8°C 87% 3.1 mph E5.0 kmh E 3.8 mph6.1 kmh 30.28 in1025.4 mb 0.00 in0.0 mm 0.00 in/hr0.0 mm/hr 0.00 in0.0 mm
03:54 AM 37.0°F2.8°C 33.5°F0.8°C 87% 2.2 mph E3.5 kmh E 3.8 mph6.1 kmh 30.28 in1025.4 mb 0.00 in0.0 mm 0.00 in/hr0.0 mm/hr 0.00 in0.0 mm
03:49 AM 36.9°F2.7°C 33.1°F0.6°C 86% 3.1 mph NE5.0 kmh NE 3.8 mph6.1 kmh 30.29 in1025.7 mb 0.00 in0.0 mm 0.00 in/hr0.0 mm/hr 0.00 in0.0 mm
03:44 AM 36.7°F2.6°C 32.9°F0.5°C 86% 1.6 mph E2.6 kmh E 3.1 mph5.0 kmh 30.29 in1025.7 mb 0.00 in0.0 mm 0.00 in/hr0.0 mm/hr 0.00 in0.0 mm
03:39 AM 36.7°F2.6°C 32.9°F0.5°C 86% 1.6 mph E2.6 kmh E 2.2 mph3.5 kmh 30.29 in1025.7 mb 0.00 in0.0 mm 0.00 in/hr0.0 mm/hr 0.00 in0.0 mm
03:34 AM 36.7°F2.6°C 32.9°F0.5°C 86% 3.1 mph E5.0 kmh E 4.5 mph7.2 kmh 30.29 in1025.7 mb 0.00 in0.0 mm 0.00 in/hr0.0 mm/hr 0.00 in0.0 mm
03:29 AM 36.7°F2.6°C 32.9°F0.5°C 86% 2.2 mph E3.5 kmh E 3.8 mph6.1 kmh 30.29 in1025.7 mb 0.00 in0.0 mm 0.00 in/hr0.0 mm/hr 0.00 in0.0 mm
03:24 AM 36.7°F2.6°C 32.9°F0.5°C 86% 1.6 mph E2.6 kmh E 3.1 mph5.0 kmh 30.29 in1025.7 mb 0.00 in0.0 mm 0.00 in/hr0.0 mm/hr 0.00 in0.0 mm
03:19 AM 36.7°F2.6°C 32.9°F0.5°C 86% 2.2 mph NE3.5 kmh NE 3.1 mph5.0 kmh 30.29 in1025.7 mb 0.00 in0.0 mm 0.00 in/hr0.0 mm/hr 0.00 in0.0 mm
03:14 AM 36.9°F2.7°C 33.1°F0.6°C 86% 1.6 mph E2.6 kmh E 3.1 mph5.0 kmh 30.29 in1025.7 mb 0.00 in0.0 mm 0.00 in/hr0.0 mm/hr 0.00 in0.0 mm
03:09 AM 36.9°F2.7°C 33.1°F0.6°C 86% 2.2 mph NNE3.5 kmh NNE 3.1 mph5.0 kmh 30.30 in1026.1 mb 0.00 in0.0 mm 0.00 in/hr0.0 mm/hr 0.00 in0.0 mm
03:04 AM 37.0°F2.8°C 33.2°F0.7°C 86% 2.2 mph NE3.5 kmh NE 3.8 mph6.1 kmh 30.29 in1025.7 mb 0.00 in0.0 mm 0.00 in/hr0.0 mm/hr 0.00 in0.0 mm
02:59 AM 37.0°F2.8°C 33.2°F0.7°C 86% 1.6 mph SSE2.6 kmh SSE 4.5 mph7.2 kmh 30.30 in1026.1 mb 0.00 in0.0 mm 0.00 in/hr0.0 mm/hr 0.00 in0.0 mm
02:54 AM 37.2°F2.9°C 33.4°F0.8°C 86% 3.1 mph E5.0 kmh E 4.5 mph7.2 kmh 30.30 in1026.1 mb 0.00 in0.0 mm 0.00 in/hr0.0 mm/hr 0.00 in0.0 mm
02:49 AM 37.2°F2.9°C 33.7°F0.9°C 87% 2.2 mph NE3.5 kmh NE 3.1 mph5.0 kmh 30.30 in1026.1 mb 0.00 in0.0 mm 0.00 in/hr0.0 mm/hr 0.00 in0.0 mm
02:44 AM 37.2°F2.9°C 33.7°F0.9°C 87% 2.2 mph ENE3.5 kmh ENE 3.8 mph6.1 kmh 30.30 in1026.1 mb 0.00 in0.0 mm 0.00 in/hr0.0 mm/hr 0.00 in0.0 mm
02:39 AM 37.4°F3.0°C 35.0°F1.7°C 91% 0.7 mph E1.1 kmh E 2.2 mph3.5 kmh 30.31 in1026.4 mb 0.00 in0.0 mm 0.00 in/hr0.0 mm/hr 0.00 in0.0 mm
02:34 AM 37.4°F3.0°C 35.0°F1.7°C 91% 1.6 mph 2.6 kmh 3.1 mph5.0 kmh 30.30 in1026.1 mb 0.00 in0.0 mm 0.00 in/hr0.0 mm/hr 0.00 in0.0 mm
02:29 AM 37.4°F3.0°C 35.0°F1.7°C 91% 2.2 mph 3.5 kmh 3.8 mph6.1 kmh 30.30 in1026.1 mb 0.00 in0.0 mm 0.00 in/hr0.0 mm/hr 0.00 in0.0 mm
02:24 AM 37.6°F3.1°C 35.2°F1.8°C 91% 1.6 mph NE2.6 kmh NE 3.1 mph5.0 kmh 30.30 in1026.1 mb 0.00 in0.0 mm 0.00 in/hr0.0 mm/hr 0.00 in0.0 mm
02:19 AM 37.6°F3.1°C 35.2°F1.8°C 91% 1.6 mph NE2.6 kmh NE 3.1 mph5.0 kmh 30.30 in1026.1 mb 0.00 in0.0 mm 0.00 in/hr0.0 mm/hr 0.00 in0.0 mm
02:14 AM 37.8°F3.2°C 35.4°F1.9°C 91% 1.6 mph NE2.6 kmh NE 3.1 mph5.0 kmh 30.31 in1026.4 mb 0.00 in0.0 mm 0.00 in/hr0.0 mm/hr 0.00 in0.0 mm
02:09 AM 37.8°F3.2°C 35.4°F1.9°C 91% 2.2 mph E3.5 kmh E 3.1 mph5.0 kmh 30.31 in1026.4 mb 0.00 in0.0 mm 0.00 in/hr0.0 mm/hr 0.00 in0.0 mm
02:04 AM 37.9°F3.3°C 35.6°F2.0°C 91% 2.2 mph E3.5 kmh E 3.1 mph5.0 kmh 30.30 in1026.1 mb 0.00 in0.0 mm 0.00 in/hr0.0 mm/hr 0.00 in0.0 mm
01:59 AM 37.9°F3.3°C 35.6°F2.0°C 91% 1.6 mph E2.6 kmh E 2.2 mph3.5 kmh 30.30 in1026.1 mb 0.00 in0.0 mm 0.00 in/hr0.0 mm/hr 0.00 in0.0 mm
01:54 AM 37.9°F3.3°C 35.6°F2.0°C 91% 0.7 mph NE1.1 kmh NE 2.2 mph3.5 kmh 30.30 in1026.1 mb 0.00 in0.0 mm 0.00 in/hr0.0 mm/hr 0.00 in0.0 mm
01:49 AM 37.9°F3.3°C 35.6°F2.0°C 91% 2.2 mph NE3.5 kmh NE 3.1 mph5.0 kmh 30.30 in1026.1 mb 0.00 in0.0 mm 0.00 in/hr0.0 mm/hr 0.00 in0.0 mm
01:44 AM 37.9°F3.3°C 35.6°F2.0°C 91% 2.2 mph NE3.5 kmh NE 3.8 mph6.1 kmh 30.30 in1026.1 mb 0.00 in0.0 mm 0.00 in/hr0.0 mm/hr 0.00 in0.0 mm
01:39 AM 37.9°F3.3°C 35.6°F2.0°C 91% 1.6 mph E2.6 kmh E 2.2 mph3.5 kmh 30.31 in1026.4 mb 0.00 in0.0 mm 0.00 in/hr0.0 mm/hr 0.00 in0.0 mm
01:34 AM 37.8°F3.2°C 35.4°F1.9°C 91% 1.6 mph ENE2.6 kmh ENE 2.2 mph3.5 kmh 30.31 in1026.4 mb 0.00 in0.0 mm 0.00 in/hr0.0 mm/hr 0.00 in0.0 mm
01:29 AM 37.8°F3.2°C 35.4°F1.9°C 91% 0.7 mph NE1.1 kmh NE 2.2 mph3.5 kmh 30.31 in1026.4 mb 0.00 in0.0 mm 0.00 in/hr0.0 mm/hr 0.00 in0.0 mm
01:24 AM 37.8°F3.2°C 35.4°F1.9°C 91% 0.7 mph ENE1.1 kmh ENE 1.6 mph2.6 kmh 30.31 in1026.4 mb 0.00 in0.0 mm 0.00 in/hr0.0 mm/hr 0.00 in0.0 mm
01:19 AM 37.9°F3.3°C 35.6°F2.0°C 91% Calm Calm 1.6 mph2.6 kmh 30.31 in1026.4 mb 0.00 in0.0 mm 0.00 in/hr0.0 mm/hr 0.00 in0.0 mm
01:14 AM 38.1°F3.4°C 35.7°F2.1°C 91% 0.7 mph NE1.1 kmh NE 2.2 mph3.5 kmh 30.31 in1026.4 mb 0.00 in0.0 mm 0.00 in/hr0.0 mm/hr 0.00 in0.0 mm
01:09 AM 38.1°F3.4°C 35.7°F2.1°C 91% Calm Calm 0.7 mph1.1 kmh 30.31 in1026.4 mb 0.00 in0.0 mm 0.00 in/hr0.0 mm/hr 0.00 in0.0 mm
01:04 AM 38.1°F3.4°C 35.7°F2.1°C 91% 0.7 mph NE1.1 kmh NE 2.2 mph3.5 kmh 30.31 in1026.4 mb 0.00 in0.0 mm 0.00 in/hr0.0 mm/hr 0.00 in0.0 mm
12:59 AM 38.1°F3.4°C 35.7°F2.1°C 91% 0.7 mph ENE1.1 kmh ENE 1.6 mph2.6 kmh 30.32 in1026.8 mb 0.00 in0.0 mm 0.00 in/hr0.0 mm/hr 0.00 in0.0 mm
12:54 AM 38.1°F3.4°C 35.7°F2.1°C 91% 1.6 mph NE2.6 kmh NE 2.2 mph3.5 kmh 30.32 in1026.8 mb 0.00 in0.0 mm 0.00 in/hr0.0 mm/hr 0.00 in0.0 mm
12:49 AM 38.1°F3.4°C 35.7°F2.1°C 91% 1.6 mph ENE2.6 kmh ENE 3.8 mph6.1 kmh 30.32 in1026.8 mb 0.00 in0.0 mm 0.00 in/hr0.0 mm/hr 0.00 in0.0 mm
12:44 AM 38.1°F3.4°C 35.7°F2.1°C 91% 1.6 mph NE2.6 kmh NE 3.1 mph5.0 kmh 30.32 in1026.8 mb 0.00 in0.0 mm 0.00 in/hr0.0 mm/hr 0.00 in0.0 mm
12:39 AM 38.1°F3.4°C 35.5°F1.9°C 90% 2.2 mph ENE3.5 kmh ENE 3.8 mph6.1 kmh 30.32 in1026.8 mb 0.00 in0.0 mm 0.00 in/hr0.0 mm/hr 0.00 in0.0 mm
12:34 AM 38.1°F3.4°C 35.5°F1.9°C 90% 0.7 mph NE1.1 kmh NE 2.2 mph3.5 kmh 30.32 in1026.8 mb 0.00 in0.0 mm 0.00 in/hr0.0 mm/hr 0.00 in0.0 mm
12:29 AM 37.9°F3.3°C 35.3°F1.8°C 90% 0.7 mph E1.1 kmh E 1.6 mph2.6 kmh 30.32 in1026.8 mb 0.00 in0.0 mm 0.00 in/hr0.0 mm/hr 0.00 in0.0 mm
12:24 AM 37.9°F3.3°C 35.3°F1.8°C 90% 1.6 mph ENE2.6 kmh ENE 2.2 mph3.5 kmh 30.32 in1026.8 mb 0.00 in0.0 mm 0.00 in/hr0.0 mm/hr 0.00 in0.0 mm
12:19 AM 37.8°F3.2°C 35.1°F1.7°C 90% 0.7 mph NE1.1 kmh NE 2.2 mph3.5 kmh 30.32 in1026.8 mb 0.00 in0.0 mm 0.00 in/hr0.0 mm/hr 0.00 in0.0 mm
12:14 AM 37.6°F3.1°C 34.9°F1.6°C 90% 1.6 mph NE2.6 kmh NE 3.1 mph5.0 kmh 30.32 in1026.8 mb 0.00 in0.0 mm 0.00 in/hr0.0 mm/hr 0.00 in0.0 mm
12:09 AM 37.4°F3.0°C 34.7°F1.5°C 90% Calm Calm 2.2 mph3.5 kmh 30.33 in1027.1 mb 0.00 in0.0 mm 0.00 in/hr0.0 mm/hr 0.00 in0.0 mm
12:04 AM 37.2°F2.9°C 33.1°F0.6°C 85% Calm Calm 2.2 mph3.5 kmh 30.32 in1026.8 mb 0.00 in0.0 mm 0.00 in/hr0.0 mm/hr 0.00 in0.0 mm